sensor_id;sensor_type;location;lat;lon;timestamp;P1;durP1;ratioP1;P2;durP2;ratioP2
77449;SDS011;66536;53.150;18.172;2023-06-26T00:01:24;8.70;;;4.60;;
77449;SDS011;66536;53.150;18.172;2023-06-26T00:03:55;6.80;;;4.60;;
77449;SDS011;66536;53.150;18.172;2023-06-26T00:06:21;7.70;;;4.80;;
77449;SDS011;66536;53.150;18.172;2023-06-26T00:08:50;6.90;;;4.70;;
77449;SDS011;66536;53.150;18.172;2023-06-26T00:11:16;5.90;;;4.20;;
77449;SDS011;66536;53.150;18.172;2023-06-26T00:13:42;5.30;;;4.00;;
77449;SDS011;66536;53.150;18.172;2023-06-26T00:16:08;6.00;;;4.10;;
77449;SDS011;66536;53.150;18.172;2023-06-26T00:18:34;6.80;;;4.50;;
77449;SDS011;66536;53.150;18.172;2023-06-26T00:21:00;9.00;;;4.90;;
77449;SDS011;66536;53.150;18.172;2023-06-26T00:23:26;7.70;;;4.20;;
77449;SDS011;66536;53.150;18.172;2023-06-26T00:25:54;8.30;;;4.30;;
77449;SDS011;66536;53.150;18.172;2023-06-26T00:28:20;6.10;;;4.10;;
77449;SDS011;66536;53.150;18.172;2023-06-26T00:30:45;7.80;;;4.60;;
77449;SDS011;66536;53.150;18.172;2023-06-26T00:33:11;9.10;;;4.50;;
77449;SDS011;66536;53.150;18.172;2023-06-26T00:35:37;6.00;;;4.20;;
77449;SDS011;66536;53.150;18.172;2023-06-26T00:38:03;7.20;;;4.60;;
77449;SDS011;66536;53.150;18.172;2023-06-26T00:40:29;5.40;;;4.10;;
77449;SDS011;66536;53.150;18.172;2023-06-26T00:42:56;7.80;;;4.50;;
77449;SDS011;66536;53.150;18.172;2023-06-26T00:45:22;6.90;;;4.80;;
77449;SDS011;66536;53.150;18.172;2023-06-26T00:47:48;6.60;;;4.70;;
77449;SDS011;66536;53.150;18.172;2023-06-26T00:50:14;7.90;;;4.40;;
77449;SDS011;66536;53.150;18.172;2023-06-26T00:52:41;6.20;;;4.30;;
77449;SDS011;66536;53.150;18.172;2023-06-26T00:55:08;8.50;;;4.50;;
77449;SDS011;66536;53.150;18.172;2023-06-26T00:57:35;8.90;;;4.30;;
77449;SDS011;66536;53.150;18.172;2023-06-26T01:00:02;6.40;;;4.60;;
77449;SDS011;66536;53.150;18.172;2023-06-26T01:02:29;9.40;;;4.40;;
77449;SDS011;66536;53.150;18.172;2023-06-26T01:04:59;6.10;;;4.60;;
77449;SDS011;66536;53.150;18.172;2023-06-26T01:07:34;7.40;;;4.90;;
77449;SDS011;66536;53.150;18.172;2023-06-26T01:10:03;7.30;;;4.60;;
77449;SDS011;66536;53.150;18.172;2023-06-26T01:12:32;7.80;;;4.70;;
77449;SDS011;66536;53.150;18.172;2023-06-26T01:14:59;6.60;;;4.60;;
77449;SDS011;66536;53.150;18.172;2023-06-26T01:17:27;5.90;;;4.50;;
77449;SDS011;66536;53.150;18.172;2023-06-26T01:19:58;9.30;;;4.90;;
77449;SDS011;66536;53.150;18.172;2023-06-26T01:22:36;8.70;;;4.90;;
77449;SDS011;66536;53.150;18.172;2023-06-26T01:25:33;7.60;;;4.80;;
77449;SDS011;66536;53.150;18.172;2023-06-26T01:28:05;7.70;;;4.60;;
77449;SDS011;66536;53.150;18.172;2023-06-26T01:30:32;7.80;;;5.00;;
77449;SDS011;66536;53.150;18.172;2023-06-26T01:33:03;8.60;;;5.20;;
77449;SDS011;66536;53.150;18.172;2023-06-26T01:35:30;9.20;;;5.10;;
77449;SDS011;66536;53.150;18.172;2023-06-26T01:40:43;10.90;;;5.90;;
77449;SDS011;66536;53.150;18.172;2023-06-26T01:43:15;7.50;;;5.50;;
77449;SDS011;66536;53.150;18.172;2023-06-26T01:48:46;7.60;;;5.80;;
77449;SDS011;66536;53.150;18.172;2023-06-26T01:51:21;9.00;;;6.00;;
77449;SDS011;66536;53.150;18.172;2023-06-26T01:53:55;7.60;;;5.80;;
77449;SDS011;66536;53.150;18.172;2023-06-26T01:56:23;10.30;;;5.70;;
77449;SDS011;66536;53.150;18.172;2023-06-26T01:58:51;7.70;;;5.70;;
77449;SDS011;66536;53.150;18.172;2023-06-26T02:01:20;8.10;;;6.30;;
77449;SDS011;66536;53.150;18.172;2023-06-26T02:03:47;11.60;;;6.50;;
77449;SDS011;66536;53.150;18.172;2023-06-26T02:06:13;7.10;;;5.70;;
77449;SDS011;66536;53.150;18.172;2023-06-26T02:08:39;9.10;;;5.90;;
77449;SDS011;66536;53.150;18.172;2023-06-26T02:11:06;8.40;;;6.00;;
77449;SDS011;66536;53.150;18.172;2023-06-26T02:13:32;11.50;;;6.10;;
77449;SDS011;66536;53.150;18.172;2023-06-26T02:15:58;11.00;;;6.20;;
77449;SDS011;66536;53.150;18.172;2023-06-26T02:18:25;8.50;;;6.10;;
77449;SDS011;66536;53.150;18.172;2023-06-26T02:20:51;13.10;;;6.70;;
77449;SDS011;66536;53.150;18.172;2023-06-26T02:23:17;10.90;;;6.20;;
77449;SDS011;66536;53.150;18.172;2023-06-26T02:25:43;16.50;;;7.10;;
77449;SDS011;66536;53.150;18.172;2023-06-26T02:28:09;12.50;;;6.40;;
77449;SDS011;66536;53.150;18.172;2023-06-26T02:30:35;10.80;;;6.60;;
77449;SDS011;66536;53.150;18.172;2023-06-26T02:33:01;8.40;;;5.90;;
77449;SDS011;66536;53.150;18.172;2023-06-26T02:35:27;9.50;;;6.30;;
77449;SDS011;66536;53.150;18.172;2023-06-26T02:37:54;12.30;;;6.00;;
77449;SDS011;66536;53.150;18.172;2023-06-26T02:40:20;13.40;;;6.60;;
77449;SDS011;66536;53.150;18.172;2023-06-26T02:42:47;9.90;;;5.90;;
77449;SDS011;66536;53.150;18.172;2023-06-26T02:45:13;9.30;;;5.90;;
77449;SDS011;66536;53.150;18.172;2023-06-26T02:47:40;12.80;;;6.00;;
77449;SDS011;66536;53.150;18.172;2023-06-26T02:50:06;10.20;;;5.80;;
77449;SDS011;66536;53.150;18.172;2023-06-26T02:52:45;9.00;;;6.10;;
77449;SDS011;66536;53.150;18.172;2023-06-26T02:55:14;9.10;;;6.00;;
77449;SDS011;66536;53.150;18.172;2023-06-26T02:58:00;10.30;;;6.30;;
77449;SDS011;66536;53.150;18.172;2023-06-26T03:00:26;10.70;;;5.80;;
77449;SDS011;66536;53.150;18.172;2023-06-26T03:02:56;8.30;;;5.70;;
77449;SDS011;66536;53.150;18.172;2023-06-26T03:05:23;11.10;;;6.30;;
77449;SDS011;66536;53.150;18.172;2023-06-26T03:07:50;10.10;;;5.80;;
77449;SDS011;66536;53.150;18.172;2023-06-26T03:10:16;9.50;;;5.90;;
77449;SDS011;66536;53.150;18.172;2023-06-26T03:12:42;10.50;;;6.00;;
77449;SDS011;66536;53.150;18.172;2023-06-26T03:15:10;9.70;;;6.20;;
77449;SDS011;66536;53.150;18.172;2023-06-26T03:17:37;8.60;;;6.10;;
77449;SDS011;66536;53.150;18.172;2023-06-26T03:20:06;10.20;;;6.90;;
77449;SDS011;66536;53.150;18.172;2023-06-26T03:22:42;10.10;;;6.00;;
77449;SDS011;66536;53.150;18.172;2023-06-26T03:25:08;9.90;;;6.60;;
77449;SDS011;66536;53.150;18.172;2023-06-26T03:27:35;11.00;;;6.40;;
77449;SDS011;66536;53.150;18.172;2023-06-26T03:30:01;9.20;;;6.20;;
77449;SDS011;66536;53.150;18.172;2023-06-26T03:32:27;9.00;;;5.30;;
77449;SDS011;66536;53.150;18.172;2023-06-26T03:34:54;8.50;;;6.20;;
77449;SDS011;66536;53.150;18.172;2023-06-26T03:37:20;10.10;;;6.50;;
77449;SDS011;66536;53.150;18.172;2023-06-26T03:39:46;8.90;;;6.40;;
77449;SDS011;66536;53.150;18.172;2023-06-26T03:42:12;12.40;;;6.60;;
77449;SDS011;66536;53.150;18.172;2023-06-26T03:44:38;9.40;;;6.20;;
77449;SDS011;66536;53.150;18.172;2023-06-26T03:47:04;10.60;;;6.40;;
77449;SDS011;66536;53.150;18.172;2023-06-26T03:49:30;10.90;;;6.30;;
77449;SDS011;66536;53.150;18.172;2023-06-26T03:51:57;9.10;;;6.40;;
77449;SDS011;66536;53.150;18.172;2023-06-26T03:54:22;9.50;;;6.20;;
77449;SDS011;66536;53.150;18.172;2023-06-26T03:56:48;8.40;;;6.20;;
77449;SDS011;66536;53.150;18.172;2023-06-26T03:59:14;9.90;;;6.40;;
77449;SDS011;66536;53.150;18.172;2023-06-26T04:01:40;9.70;;;6.40;;
77449;SDS011;66536;53.150;18.172;2023-06-26T04:04:06;8.80;;;6.20;;
77449;SDS011;66536;53.150;18.172;2023-06-26T04:06:32;10.30;;;6.30;;
77449;SDS011;66536;53.150;18.172;2023-06-26T04:08:59;11.70;;;7.10;;
77449;SDS011;66536;53.150;18.172;2023-06-26T04:11:27;12.60;;;7.60;;
77449;SDS011;66536;53.150;18.172;2023-06-26T04:13:53;11.80;;;7.20;;
77449;SDS011;66536;53.150;18.172;2023-06-26T04:16:19;15.40;;;7.80;;
77449;SDS011;66536;53.150;18.172;2023-06-26T04:18:44;10.70;;;7.90;;
77449;SDS011;66536;53.150;18.172;2023-06-26T04:21:11;12.10;;;7.20;;
77449;SDS011;66536;53.150;18.172;2023-06-26T04:23:38;9.80;;;7.70;;
77449;SDS011;66536;53.150;18.172;2023-06-26T04:26:06;12.80;;;7.70;;
77449;SDS011;66536;53.150;18.172;2023-06-26T04:28:33;10.60;;;7.70;;
77449;SDS011;66536;53.150;18.172;2023-06-26T04:31:00;12.60;;;7.90;;
77449;SDS011;66536;53.150;18.172;2023-06-26T04:33:29;12.70;;;8.80;;
77449;SDS011;66536;53.150;18.172;2023-06-26T04:35:55;13.60;;;9.10;;
77449;SDS011;66536;53.150;18.172;2023-06-26T04:38:21;13.20;;;8.20;;
77449;SDS011;66536;53.150;18.172;2023-06-26T04:40:47;14.80;;;8.40;;
77449;SDS011;66536;53.150;18.172;2023-06-26T04:43:14;13.30;;;9.20;;
77449;SDS011;66536;53.150;18.172;2023-06-26T04:45:40;15.70;;;9.00;;
77449;SDS011;66536;53.150;18.172;2023-06-26T04:48:06;16.20;;;9.30;;
77449;SDS011;66536;53.150;18.172;2023-06-26T04:50:32;15.50;;;9.60;;
77449;SDS011;66536;53.150;18.172;2023-06-26T04:52:59;13.20;;;9.70;;
77449;SDS011;66536;53.150;18.172;2023-06-26T04:55:25;12.20;;;9.40;;
77449;SDS011;66536;53.150;18.172;2023-06-26T04:57:51;26.40;;;10.00;;
77449;SDS011;66536;53.150;18.172;2023-06-26T05:00:18;12.20;;;9.30;;
77449;SDS011;66536;53.150;18.172;2023-06-26T05:02:45;15.70;;;10.00;;
77449;SDS011;66536;53.150;18.172;2023-06-26T05:05:11;13.90;;;9.60;;
77449;SDS011;66536;53.150;18.172;2023-06-26T05:07:37;14.70;;;10.00;;
77449;SDS011;66536;53.150;18.172;2023-06-26T05:10:04;11.80;;;9.30;;
77449;SDS011;66536;53.150;18.172;2023-06-26T05:12:30;12.80;;;9.50;;
77449;SDS011;66536;53.150;18.172;2023-06-26T05:15:16;14.20;;;8.90;;
77449;SDS011;66536;53.150;18.172;2023-06-26T05:17:42;13.00;;;9.80;;
77449;SDS011;66536;53.150;18.172;2023-06-26T05:20:08;16.00;;;9.30;;
77449;SDS011;66536;53.150;18.172;2023-06-26T05:22:36;17.10;;;9.80;;
77449;SDS011;66536;53.150;18.172;2023-06-26T05:25:05;13.40;;;8.80;;
77449;SDS011;66536;53.150;18.172;2023-06-26T05:27:35;14.90;;;9.00;;
77449;SDS011;66536;53.150;18.172;2023-06-26T05:30:01;15.10;;;8.80;;
77449;SDS011;66536;53.150;18.172;2023-06-26T05:32:28;13.20;;;9.50;;
77449;SDS011;66536;53.150;18.172;2023-06-26T05:34:56;12.80;;;9.10;;
77449;SDS011;66536;53.150;18.172;2023-06-26T05:37:23;12.90;;;9.20;;
77449;SDS011;66536;53.150;18.172;2023-06-26T05:39:52;13.50;;;9.20;;
77449;SDS011;66536;53.150;18.172;2023-06-26T05:42:18;11.40;;;8.90;;
77449;SDS011;66536;53.150;18.172;2023-06-26T05:44:44;15.30;;;9.40;;
77449;SDS011;66536;53.150;18.172;2023-06-26T05:47:10;13.30;;;9.70;;
77449;SDS011;66536;53.150;18.172;2023-06-26T05:49:36;14.20;;;9.40;;
77449;SDS011;66536;53.150;18.172;2023-06-26T05:52:03;13.20;;;9.10;;
77449;SDS011;66536;53.150;18.172;2023-06-26T05:54:30;13.30;;;9.00;;
77449;SDS011;66536;53.150;18.172;2023-06-26T05:56:57;12.00;;;8.50;;
77449;SDS011;66536;53.150;18.172;2023-06-26T05:59:25;14.00;;;9.10;;
77449;SDS011;66536;53.150;18.172;2023-06-26T06:01:52;12.80;;;8.80;;
77449;SDS011;66536;53.150;18.172;2023-06-26T06:04:20;12.10;;;8.60;;
77449;SDS011;66536;53.150;18.172;2023-06-26T06:06:46;11.40;;;9.10;;
77449;SDS011;66536;53.150;18.172;2023-06-26T06:09:12;10.70;;;9.10;;
77449;SDS011;66536;53.150;18.172;2023-06-26T06:11:38;11.00;;;8.70;;
77449;SDS011;66536;53.150;18.172;2023-06-26T06:14:04;11.00;;;8.90;;
77449;SDS011;66536;53.150;18.172;2023-06-26T06:16:30;11.90;;;8.40;;
77449;SDS011;66536;53.150;18.172;2023-06-26T06:18:56;11.40;;;8.40;;
77449;SDS011;66536;53.150;18.172;2023-06-26T06:21:22;11.80;;;8.90;;
77449;SDS011;66536;53.150;18.172;2023-06-26T06:23:48;11.60;;;9.10;;
77449;SDS011;66536;53.150;18.172;2023-06-26T06:26:14;12.20;;;9.30;;
77449;SDS011;66536;53.150;18.172;2023-06-26T06:28:40;17.60;;;9.50;;
77449;SDS011;66536;53.150;18.172;2023-06-26T06:31:06;14.40;;;9.10;;
77449;SDS011;66536;53.150;18.172;2023-06-26T06:33:32;12.30;;;8.70;;
77449;SDS011;66536;53.150;18.172;2023-06-26T06:36:00;12.10;;;8.70;;
77449;SDS011;66536;53.150;18.172;2023-06-26T06:38:25;14.80;;;8.80;;
77449;SDS011;66536;53.150;18.172;2023-06-26T06:40:51;9.10;;;7.90;;
77449;SDS011;66536;53.150;18.172;2023-06-26T06:43:18;9.30;;;8.00;;
77449;SDS011;66536;53.150;18.172;2023-06-26T06:45:44;10.40;;;8.10;;
77449;SDS011;66536;53.150;18.172;2023-06-26T06:48:10;10.20;;;7.60;;
77449;SDS011;66536;53.150;18.172;2023-06-26T06:50:37;10.60;;;8.30;;
77449;SDS011;66536;53.150;18.172;2023-06-26T06:53:03;11.60;;;7.70;;
77449;SDS011;66536;53.150;18.172;2023-06-26T06:55:29;12.70;;;8.00;;
77449;SDS011;66536;53.150;18.172;2023-06-26T06:57:55;23.20;;;8.20;;
77449;SDS011;66536;53.150;18.172;2023-06-26T07:00:21;9.10;;;7.20;;
77449;SDS011;66536;53.150;18.172;2023-06-26T07:02:47;8.50;;;6.80;;
77449;SDS011;66536;53.150;18.172;2023-06-26T07:05:13;9.60;;;7.10;;
77449;SDS011;66536;53.150;18.172;2023-06-26T07:07:39;9.10;;;6.30;;
77449;SDS011;66536;53.150;18.172;2023-06-26T07:10:06;7.90;;;6.90;;
77449;SDS011;66536;53.150;18.172;2023-06-26T07:12:34;9.00;;;7.30;;
77449;SDS011;66536;53.150;18.172;2023-06-26T07:15:01;8.20;;;7.40;;
77449;SDS011;66536;53.150;18.172;2023-06-26T07:17:30;9.00;;;7.00;;
77449;SDS011;66536;53.150;18.172;2023-06-26T07:19:59;7.90;;;6.80;;
77449;SDS011;66536;53.150;18.172;2023-06-26T07:22:25;12.30;;;6.80;;
77449;SDS011;66536;53.150;18.172;2023-06-26T07:24:52;9.30;;;7.00;;
77449;SDS011;66536;53.150;18.172;2023-06-26T07:27:19;9.40;;;7.10;;
77449;SDS011;66536;53.150;18.172;2023-06-26T07:29:46;8.80;;;7.40;;
77449;SDS011;66536;53.150;18.172;2023-06-26T07:32:12;9.30;;;7.00;;
77449;SDS011;66536;53.150;18.172;2023-06-26T07:34:38;9.90;;;6.70;;
77449;SDS011;66536;53.150;18.172;2023-06-26T07:37:04;8.10;;;6.40;;
77449;SDS011;66536;53.150;18.172;2023-06-26T07:39:30;7.90;;;5.90;;
77449;SDS011;66536;53.150;18.172;2023-06-26T07:41:56;6.30;;;5.70;;
77449;SDS011;66536;53.150;18.172;2023-06-26T07:44:23;7.70;;;5.70;;
77449;SDS011;66536;53.150;18.172;2023-06-26T07:46:49;8.00;;;5.70;;
77449;SDS011;66536;53.150;18.172;2023-06-26T07:49:16;6.80;;;5.70;;
77449;SDS011;66536;53.150;18.172;2023-06-26T07:51:42;7.10;;;6.40;;
77449;SDS011;66536;53.150;18.172;2023-06-26T07:54:08;7.50;;;5.70;;
77449;SDS011;66536;53.150;18.172;2023-06-26T07:56:35;8.10;;;5.90;;
77449;SDS011;66536;53.150;18.172;2023-06-26T07:59:20;5.60;;;5.10;;
77449;SDS011;66536;53.150;18.172;2023-06-26T08:01:47;6.40;;;4.90;;
77449;SDS011;66536;53.150;18.172;2023-06-26T08:04:13;8.20;;;5.10;;
77449;SDS011;66536;53.150;18.172;2023-06-26T08:06:39;5.90;;;5.10;;
77449;SDS011;66536;53.150;18.172;2023-06-26T08:09:06;8.60;;;6.40;;
77449;SDS011;66536;53.150;18.172;2023-06-26T08:11:34;6.40;;;5.70;;
77449;SDS011;66536;53.150;18.172;2023-06-26T08:14:00;11.30;;;8.90;;
77449;SDS011;66536;53.150;18.172;2023-06-26T08:16:26;8.10;;;5.10;;
77449;SDS011;66536;53.150;18.172;2023-06-26T08:18:51;6.50;;;5.50;;
77449;SDS011;66536;53.150;18.172;2023-06-26T08:21:17;6.30;;;4.80;;
77449;SDS011;66536;53.150;18.172;2023-06-26T08:23:44;6.70;;;4.90;;
77449;SDS011;66536;53.150;18.172;2023-06-26T08:26:11;9.20;;;4.80;;
77449;SDS011;66536;53.150;18.172;2023-06-26T08:28:37;5.80;;;4.60;;
77449;SDS011;66536;53.150;18.172;2023-06-26T08:31:03;6.50;;;4.70;;
77449;SDS011;66536;53.150;18.172;2023-06-26T08:33:29;5.40;;;4.80;;
77449;SDS011;66536;53.150;18.172;2023-06-26T08:35:55;5.60;;;4.60;;
77449;SDS011;66536;53.150;18.172;2023-06-26T08:38:21;5.20;;;4.60;;
77449;SDS011;66536;53.150;18.172;2023-06-26T08:40:47;6.60;;;5.20;;
77449;SDS011;66536;53.150;18.172;2023-06-26T08:43:13;6.80;;;5.10;;
77449;SDS011;66536;53.150;18.172;2023-06-26T08:45:39;6.40;;;4.30;;
77449;SDS011;66536;53.150;18.172;2023-06-26T08:48:07;6.30;;;4.40;;
77449;SDS011;66536;53.150;18.172;2023-06-26T08:50:34;6.20;;;4.50;;
77449;SDS011;66536;53.150;18.172;2023-06-26T08:53:07;5.70;;;4.80;;
77449;SDS011;66536;53.150;18.172;2023-06-26T08:55:55;8.20;;;4.60;;
77449;SDS011;66536;53.150;18.172;2023-06-26T08:58:24;7.60;;;4.50;;
77449;SDS011;66536;53.150;18.172;2023-06-26T09:00:50;7.70;;;4.30;;
77449;SDS011;66536;53.150;18.172;2023-06-26T09:03:17;4.50;;;4.10;;
77449;SDS011;66536;53.150;18.172;2023-06-26T09:05:43;5.00;;;4.40;;
77449;SDS011;66536;53.150;18.172;2023-06-26T09:08:09;12.30;;;4.40;;
77449;SDS011;66536;53.150;18.172;2023-06-26T09:10:35;5.20;;;4.50;;
77449;SDS011;66536;53.150;18.172;2023-06-26T09:13:21;4.90;;;4.40;;
77449;SDS011;66536;53.150;18.172;2023-06-26T09:15:47;9.30;;;4.70;;
77449;SDS011;66536;53.150;18.172;2023-06-26T09:18:14;7.50;;;5.30;;
77449;SDS011;66536;53.150;18.172;2023-06-26T09:20:44;5.30;;;4.80;;
77449;SDS011;66536;53.150;18.172;2023-06-26T09:23:11;6.20;;;4.70;;
77449;SDS011;66536;53.150;18.172;2023-06-26T09:25:37;5.80;;;4.60;;
77449;SDS011;66536;53.150;18.172;2023-06-26T09:28:05;5.20;;;4.50;;
77449;SDS011;66536;53.150;18.172;2023-06-26T09:30:32;10.70;;;5.80;;
77449;SDS011;66536;53.150;18.172;2023-06-26T09:33:12;7.00;;;5.70;;
77449;SDS011;66536;53.150;18.172;2023-06-26T09:35:41;4.90;;;4.40;;
77449;SDS011;66536;53.150;18.172;2023-06-26T09:38:08;5.50;;;5.00;;
77449;SDS011;66536;53.150;18.172;2023-06-26T09:40:34;5.20;;;4.70;;
77449;SDS011;66536;53.150;18.172;2023-06-26T09:43:03;5.50;;;4.50;;
77449;SDS011;66536;53.150;18.172;2023-06-26T09:45:31;5.10;;;4.60;;
77449;SDS011;66536;53.150;18.172;2023-06-26T09:48:00;6.50;;;5.00;;
77449;SDS011;66536;53.150;18.172;2023-06-26T09:50:28;5.70;;;4.90;;
77449;SDS011;66536;53.150;18.172;2023-06-26T09:52:55;5.40;;;4.80;;
77449;SDS011;66536;53.150;18.172;2023-06-26T09:55:21;5.70;;;4.60;;
77449;SDS011;66536;53.150;18.172;2023-06-26T09:57:49;8.20;;;4.80;;
77449;SDS011;66536;53.150;18.172;2023-06-26T10:00:16;5.00;;;4.50;;
77449;SDS011;66536;53.150;18.172;2023-06-26T10:02:43;5.30;;;4.30;;
77449;SDS011;66536;53.150;18.172;2023-06-26T10:05:10;4.90;;;4.50;;
77449;SDS011;66536;53.150;18.172;2023-06-26T10:07:36;10.30;;;4.90;;
77449;SDS011;66536;53.150;18.172;2023-06-26T10:10:03;6.50;;;4.40;;
77449;SDS011;66536;53.150;18.172;2023-06-26T10:12:33;7.30;;;4.80;;
77449;SDS011;66536;53.150;18.172;2023-06-26T10:15:02;7.90;;;5.10;;
77449;SDS011;66536;53.150;18.172;2023-06-26T10:17:31;5.40;;;4.60;;
77449;SDS011;66536;53.150;18.172;2023-06-26T10:20:02;6.00;;;4.80;;
77449;SDS011;66536;53.150;18.172;2023-06-26T10:22:48;5.30;;;4.50;;
77449;SDS011;66536;53.150;18.172;2023-06-26T10:25:18;5.80;;;4.90;;
77449;SDS011;66536;53.150;18.172;2023-06-26T10:27:47;11.40;;;8.70;;
77449;SDS011;66536;53.150;18.172;2023-06-26T10:30:20;8.60;;;7.70;;
77449;SDS011;66536;53.150;18.172;2023-06-26T10:32:50;6.80;;;5.00;;
77449;SDS011;66536;53.150;18.172;2023-06-26T10:35:16;5.40;;;4.20;;
77449;SDS011;66536;53.150;18.172;2023-06-26T10:37:44;6.50;;;4.60;;
77449;SDS011;66536;53.150;18.172;2023-06-26T10:40:13;6.10;;;4.40;;
77449;SDS011;66536;53.150;18.172;2023-06-26T10:42:40;5.20;;;4.70;;
77449;SDS011;66536;53.150;18.172;2023-06-26T10:45:11;5.50;;;4.70;;
77449;SDS011;66536;53.150;18.172;2023-06-26T10:47:42;4.80;;;4.40;;
77449;SDS011;66536;53.150;18.172;2023-06-26T10:50:19;5.60;;;4.60;;
77449;SDS011;66536;53.150;18.172;2023-06-26T10:55:34;8.00;;;6.60;;
77449;SDS011;66536;53.150;18.172;2023-06-26T10:58:00;5.60;;;4.60;;
77449;SDS011;66536;53.150;18.172;2023-06-26T11:00:28;5.10;;;4.60;;
77449;SDS011;66536;53.150;18.172;2023-06-26T11:02:54;5.40;;;4.60;;
77449;SDS011;66536;53.150;18.172;2023-06-26T11:05:24;5.10;;;4.60;;
77449;SDS011;66536;53.150;18.172;2023-06-26T11:08:03;4.20;;;3.90;;
77449;SDS011;66536;53.150;18.172;2023-06-26T11:10:59;4.40;;;4.00;;
77449;SDS011;66536;53.150;18.172;2023-06-26T11:13:26;5.50;;;4.60;;
77449;SDS011;66536;53.150;18.172;2023-06-26T11:15:53;6.60;;;4.30;;
77449;SDS011;66536;53.150;18.172;2023-06-26T11:18:22;5.00;;;4.60;;
77449;SDS011;66536;53.150;18.172;2023-06-26T11:20:49;11.30;;;10.00;;
77449;SDS011;66536;53.150;18.172;2023-06-26T11:23:15;7.20;;;5.50;;
77449;SDS011;66536;53.150;18.172;2023-06-26T11:25:49;5.60;;;4.30;;
77449;SDS011;66536;53.150;18.172;2023-06-26T11:28:15;7.40;;;5.60;;
77449;SDS011;66536;53.150;18.172;2023-06-26T11:30:41;6.80;;;4.90;;
77449;SDS011;66536;53.150;18.172;2023-06-26T11:33:08;5.30;;;4.50;;
77449;SDS011;66536;53.150;18.172;2023-06-26T11:35:35;6.80;;;4.60;;
77449;SDS011;66536;53.150;18.172;2023-06-26T11:38:03;5.20;;;4.70;;
77449;SDS011;66536;53.150;18.172;2023-06-26T11:40:32;6.50;;;4.40;;
77449;SDS011;66536;53.150;18.172;2023-06-26T11:43:01;6.50;;;4.80;;
77449;SDS011;66536;53.150;18.172;2023-06-26T11:45:29;7.50;;;5.30;;
77449;SDS011;66536;53.150;18.172;2023-06-26T11:47:57;6.40;;;5.00;;
77449;SDS011;66536;53.150;18.172;2023-06-26T11:50:24;6.20;;;5.30;;
77449;SDS011;66536;53.150;18.172;2023-06-26T11:52:54;5.50;;;4.90;;
77449;SDS011;66536;53.150;18.172;2023-06-26T11:55:23;10.60;;;9.10;;
77449;SDS011;66536;53.150;18.172;2023-06-26T11:57:50;7.70;;;6.40;;
77449;SDS011;66536;53.150;18.172;2023-06-26T12:00:18;5.90;;;5.00;;
77449;SDS011;66536;53.150;18.172;2023-06-26T12:02:45;5.90;;;5.40;;
77449;SDS011;66536;53.150;18.172;2023-06-26T12:05:13;7.40;;;6.00;;
77449;SDS011;66536;53.150;18.172;2023-06-26T12:07:41;7.50;;;5.80;;
77449;SDS011;66536;53.150;18.172;2023-06-26T12:10:10;6.80;;;5.20;;
77449;SDS011;66536;53.150;18.172;2023-06-26T12:12:37;7.30;;;5.40;;
77449;SDS011;66536;53.150;18.172;2023-06-26T12:15:05;7.10;;;5.70;;
77449;SDS011;66536;53.150;18.172;2023-06-26T12:17:33;6.80;;;5.50;;
77449;SDS011;66536;53.150;18.172;2023-06-26T12:20:02;6.40;;;5.60;;
77449;SDS011;66536;53.150;18.172;2023-06-26T12:22:33;6.20;;;5.60;;
77449;SDS011;66536;53.150;18.172;2023-06-26T12:25:01;9.10;;;5.60;;
77449;SDS011;66536;53.150;18.172;2023-06-26T12:27:27;6.50;;;5.70;;
77449;SDS011;66536;53.150;18.172;2023-06-26T12:29:53;5.80;;;5.30;;
77449;SDS011;66536;53.150;18.172;2023-06-26T12:32:23;7.70;;;5.20;;
77449;SDS011;66536;53.150;18.172;2023-06-26T12:34:51;8.70;;;5.30;;
77449;SDS011;66536;53.150;18.172;2023-06-26T12:37:18;6.70;;;5.10;;
77449;SDS011;66536;53.150;18.172;2023-06-26T12:39:52;7.10;;;5.70;;
77449;SDS011;66536;53.150;18.172;2023-06-26T12:42:21;7.80;;;5.20;;
77449;SDS011;66536;53.150;18.172;2023-06-26T12:44:49;9.00;;;5.30;;
77449;SDS011;66536;53.150;18.172;2023-06-26T12:47:17;9.10;;;5.80;;
77449;SDS011;66536;53.150;18.172;2023-06-26T12:49:45;7.20;;;5.80;;
77449;SDS011;66536;53.150;18.172;2023-06-26T12:52:16;6.20;;;5.60;;
77449;SDS011;66536;53.150;18.172;2023-06-26T12:54:45;11.10;;;5.30;;
77449;SDS011;66536;53.150;18.172;2023-06-26T12:57:12;6.30;;;5.00;;
77449;SDS011;66536;53.150;18.172;2023-06-26T12:59:40;6.60;;;5.00;;
77449;SDS011;66536;53.150;18.172;2023-06-26T13:02:07;6.90;;;5.30;;
77449;SDS011;66536;53.150;18.172;2023-06-26T13:04:33;6.50;;;5.20;;
77449;SDS011;66536;53.150;18.172;2023-06-26T13:07:01;6.60;;;4.90;;
77449;SDS011;66536;53.150;18.172;2023-06-26T13:09:31;12.00;;;5.10;;
77449;SDS011;66536;53.150;18.172;2023-06-26T13:11:59;8.40;;;5.60;;
77449;SDS011;66536;53.150;18.172;2023-06-26T13:14:25;7.60;;;4.90;;
77449;SDS011;66536;53.150;18.172;2023-06-26T13:16:51;5.90;;;4.50;;
77449;SDS011;66536;53.150;18.172;2023-06-26T13:19:17;6.00;;;5.40;;
77449;SDS011;66536;53.150;18.172;2023-06-26T13:21:43;5.60;;;5.20;;
77449;SDS011;66536;53.150;18.172;2023-06-26T13:24:10;8.70;;;4.80;;
77449;SDS011;66536;53.150;18.172;2023-06-26T13:26:36;6.20;;;5.10;;
77449;SDS011;66536;53.150;18.172;2023-06-26T13:29:02;7.00;;;6.30;;
77449;SDS011;66536;53.150;18.172;2023-06-26T13:31:28;5.90;;;5.30;;
77449;SDS011;66536;53.150;18.172;2023-06-26T13:33:56;6.80;;;5.30;;
77449;SDS011;66536;53.150;18.172;2023-06-26T13:36:23;7.80;;;5.20;;
77449;SDS011;66536;53.150;18.172;2023-06-26T13:38:50;6.40;;;5.20;;
77449;SDS011;66536;53.150;18.172;2023-06-26T13:41:22;9.00;;;5.10;;
77449;SDS011;66536;53.150;18.172;2023-06-26T13:43:48;7.40;;;5.30;;
77449;SDS011;66536;53.150;18.172;2023-06-26T13:46:15;5.90;;;5.10;;
77449;SDS011;66536;53.150;18.172;2023-06-26T13:48:42;6.70;;;5.10;;
77449;SDS011;66536;53.150;18.172;2023-06-26T13:51:09;6.60;;;5.50;;
77449;SDS011;66536;53.150;18.172;2023-06-26T13:53:35;7.90;;;5.20;;
77449;SDS011;66536;53.150;18.172;2023-06-26T13:56:01;10.40;;;5.60;;
77449;SDS011;66536;53.150;18.172;2023-06-26T13:58:28;6.00;;;4.70;;
77449;SDS011;66536;53.150;18.172;2023-06-26T14:00:55;6.20;;;5.30;;
77449;SDS011;66536;53.150;18.172;2023-06-26T14:03:21;5.40;;;4.90;;
77449;SDS011;66536;53.150;18.172;2023-06-26T14:05:48;5.60;;;5.00;;
77449;SDS011;66536;53.150;18.172;2023-06-26T14:08:14;9.80;;;4.90;;
77449;SDS011;66536;53.150;18.172;2023-06-26T14:10:40;5.50;;;4.70;;
77449;SDS011;66536;53.150;18.172;2023-06-26T14:13:06;5.00;;;4.40;;
77449;SDS011;66536;53.150;18.172;2023-06-26T14:15:34;5.30;;;4.60;;
77449;SDS011;66536;53.150;18.172;2023-06-26T14:18:01;7.20;;;4.90;;
77449;SDS011;66536;53.150;18.172;2023-06-26T14:20:28;7.90;;;5.20;;
77449;SDS011;66536;53.150;18.172;2023-06-26T14:22:55;7.40;;;4.70;;
77449;SDS011;66536;53.150;18.172;2023-06-26T14:25:41;5.70;;;4.70;;
77449;SDS011;66536;53.150;18.172;2023-06-26T14:28:27;5.50;;;5.00;;
77449;SDS011;66536;53.150;18.172;2023-06-26T14:30:53;5.00;;;4.50;;
77449;SDS011;66536;53.150;18.172;2023-06-26T14:33:19;5.30;;;4.50;;
77449;SDS011;66536;53.150;18.172;2023-06-26T14:35:45;8.30;;;5.60;;
77449;SDS011;66536;53.150;18.172;2023-06-26T14:38:11;6.80;;;5.70;;
77449;SDS011;66536;53.150;18.172;2023-06-26T14:40:37;6.20;;;5.00;;
77449;SDS011;66536;53.150;18.172;2023-06-26T14:43:03;6.10;;;4.80;;